ADDS TAF Board (Experimental) INFO

IDs: Format: Expanded Condensed

Updated at: 0845 UTC 25 Oct 2014

KMEM - Memphis Intl, TN, US

Issued at 0520 UTC 25 Oct 2014
Time0754Z25/09Z25/10Z25/11Z25/12Z25/13Z25/14Z25/15Z25/16Z25/17Z25/18Z25/19Z25/20Z25/21Z
TypeOBSPRVLPRVLPRVLPRVLPRVLPRVLPRVLPRVLPRVLPRVLPRVLPRVLPRVL
VIS9>6>6>6>6>6>6>6>6>6>6>6>6>6
CIG----------------------------
CoverCLRFEWFEWFEWFEWFEWSCTSCTSCTSCTSCTSCTSCTSCT
FltCat--VFRVFRVFRVFRVFRVFRVFRVFRVFRVFRVFRVFRVFR
WX----------------------------
WDirVRBVRBVRBVRBVRBVRB250250250250250250250250
WSpd00000077777777
WGst----------------------------
R09/27
XWndVRBVRBVRBVRBVRBVRB-3-3-3-3-3-3-3-3
HWndVRBVRBVRBVRBVRBVRB-6-6-6-6-6-6-6-6
R18/36
XWndVRBVRBVRBVRBVRBVRB-7-7-7-7-7-7-7-7
HWndVRBVRBVRBVRBVRBVRB22222222
Raw TAF
KMEM 250520Z 2506/2606 00000KT P6SM FEW250
  FM251400 25007KT P6SM SCT050
  FM260000 21003KT P6SM SKC


Raw METAR
KMEM 250754Z 00000KT 9SM CLR 14/12 A3008 RMK AO2 SLP184 T01390117 $

TAF Board Legend

Hazard VFR MVFR IFR LIFR
Visibility (sm) >5 3≤X≤5 1≤X<3 <1
Ceiling (100 ft) >30 10≤X≤30 5≤X<10 <5
Wind Speed (kt) <10 10≤X<20 20≤X<30 ≥30
Wind Gust (kt) <15 15≤X<25 25≤X<35 ≥35
Weather No Wx Reported VCTS,-TS,-FZRA TS,FZRA +TS,+FZRA


Page loaded:  08:45 UTC  |   01:45 AM Pacific  |   02:45 AM Mountain  |   03:45 AM Central  |   04:45 AM Eastern

 

ADVISORIES

FORECASTS

FORECASTS

OBSERVATIONS

USER TOOLS

ABOUT US